sensor_id;sensor_type;location;lat;lon;timestamp;temperature;humidity
20915;DHT22;10617;52.032;5.298;2023-04-05T00:03:42;4.30;72.90
20915;DHT22;10617;52.032;5.298;2023-04-05T00:07:44;4.10;74.30
20915;DHT22;10617;52.032;5.298;2023-04-05T00:11:48;4.00;77.30
20915;DHT22;10617;52.032;5.298;2023-04-05T00:15:50;4.00;75.10
20915;DHT22;10617;52.032;5.298;2023-04-05T00:19:51;3.90;71.60
20915;DHT22;10617;52.032;5.298;2023-04-05T00:23:57;3.90;70.00
20915;DHT22;10617;52.032;5.298;2023-04-05T00:27:59;3.80;69.80
20915;DHT22;10617;52.032;5.298;2023-04-05T00:32:01;3.80;70.40
20915;DHT22;10617;52.032;5.298;2023-04-05T00:36:16;3.70;72.70
20915;DHT22;10617;52.032;5.298;2023-04-05T00:40:18;3.70;72.50
20915;DHT22;10617;52.032;5.298;2023-04-05T00:44:19;3.60;73.70
20915;DHT22;10617;52.032;5.298;2023-04-05T00:48:21;3.50;75.50
20915;DHT22;10617;52.032;5.298;2023-04-05T00:52:23;3.40;74.00
20915;DHT22;10617;52.032;5.298;2023-04-05T00:56:25;3.40;74.00
20915;DHT22;10617;52.032;5.298;2023-04-05T01:00:27;3.40;73.80
20915;DHT22;10617;52.032;5.298;2023-04-05T01:04:29;3.40;75.10
20915;DHT22;10617;52.032;5.298;2023-04-05T01:08:39;3.30;73.00
20915;DHT22;10617;52.032;5.298;2023-04-05T01:12:45;3.30;73.10
20915;DHT22;10617;52.032;5.298;2023-04-05T01:16:47;3.30;68.80
20915;DHT22;10617;52.032;5.298;2023-04-05T01:21:01;3.20;72.00
20915;DHT22;10617;52.032;5.298;2023-04-05T01:25:33;3.20;72.90
20915;DHT22;10617;52.032;5.298;2023-04-05T01:29:43;3.20;68.70
20915;DHT22;10617;52.032;5.298;2023-04-05T01:33:48;3.10;68.60
20915;DHT22;10617;52.032;5.298;2023-04-05T01:37:54;3.00;71.50
20915;DHT22;10617;52.032;5.298;2023-04-05T01:41:58;3.00;71.70
20915;DHT22;10617;52.032;5.298;2023-04-05T01:46:00;2.90;72.60
20915;DHT22;10617;52.032;5.298;2023-04-05T01:50:02;2.90;72.70
20915;DHT22;10617;52.032;5.298;2023-04-05T01:54:04;2.80;73.10
20915;DHT22;10617;52.032;5.298;2023-04-05T01:58:05;2.80;72.10
20915;DHT22;10617;52.032;5.298;2023-04-05T02:02:07;2.70;73.00
20915;DHT22;10617;52.032;5.298;2023-04-05T02:06:09;2.70;72.80
20915;DHT22;10617;52.032;5.298;2023-04-05T02:10:11;2.70;73.10
20915;DHT22;10617;52.032;5.298;2023-04-05T02:14:12;2.60;73.90
20915;DHT22;10617;52.032;5.298;2023-04-05T02:18:14;2.60;74.40
20915;DHT22;10617;52.032;5.298;2023-04-05T02:22:16;2.50;72.80
20915;DHT22;10617;52.032;5.298;2023-04-05T02:26:18;2.50;73.40
20915;DHT22;10617;52.032;5.298;2023-04-05T02:30:19;2.40;74.10
20915;DHT22;10617;52.032;5.298;2023-04-05T02:34:21;2.40;73.30
20915;DHT22;10617;52.032;5.298;2023-04-05T02:38:23;2.30;75.30
20915;DHT22;10617;52.032;5.298;2023-04-05T02:42:24;2.30;76.20
20915;DHT22;10617;52.032;5.298;2023-04-05T02:46:26;2.20;74.90
20915;DHT22;10617;52.032;5.298;2023-04-05T02:50:28;2.20;74.20
20915;DHT22;10617;52.032;5.298;2023-04-05T02:54:29;2.10;75.10
20915;DHT22;10617;52.032;5.298;2023-04-05T02:58:31;2.10;74.50
20915;DHT22;10617;52.032;5.298;2023-04-05T03:02:32;2.10;75.80
20915;DHT22;10617;52.032;5.298;2023-04-05T03:06:34;2.00;76.50
20915;DHT22;10617;52.032;5.298;2023-04-05T03:10:36;1.90;76.10
20915;DHT22;10617;52.032;5.298;2023-04-05T03:14:39;1.90;74.70
20915;DHT22;10617;52.032;5.298;2023-04-05T03:18:41;1.80;75.60
20915;DHT22;10617;52.032;5.298;2023-04-05T03:22:43;1.80;76.20
20915;DHT22;10617;52.032;5.298;2023-04-05T03:26:45;1.80;74.70
20915;DHT22;10617;52.032;5.298;2023-04-05T03:30:47;1.70;76.10
20915;DHT22;10617;52.032;5.298;2023-04-05T03:34:48;1.70;76.10
20915;DHT22;10617;52.032;5.298;2023-04-05T03:38:50;1.60;75.70
20915;DHT22;10617;52.032;5.298;2023-04-05T03:42:52;1.60;75.20
20915;DHT22;10617;52.032;5.298;2023-04-05T03:46:53;1.60;74.20
20915;DHT22;10617;52.032;5.298;2023-04-05T03:50:56;1.50;74.20
20915;DHT22;10617;52.032;5.298;2023-04-05T03:54:57;1.50;74.70
20915;DHT22;10617;52.032;5.298;2023-04-05T03:58:59;1.40;75.40
20915;DHT22;10617;52.032;5.298;2023-04-05T04:03:01;1.40;74.30
20915;DHT22;10617;52.032;5.298;2023-04-05T04:07:02;1.40;75.70
20915;DHT22;10617;52.032;5.298;2023-04-05T04:11:04;1.30;74.60
20915;DHT22;10617;52.032;5.298;2023-04-05T04:15:07;1.30;73.80
20915;DHT22;10617;52.032;5.298;2023-04-05T04:19:08;1.30;74.10
20915;DHT22;10617;52.032;5.298;2023-04-05T04:23:10;1.30;73.70
20915;DHT22;10617;52.032;5.298;2023-04-05T04:27:15;1.20;74.40
20915;DHT22;10617;52.032;5.298;2023-04-05T04:31:17;1.20;74.30
20915;DHT22;10617;52.032;5.298;2023-04-05T04:39:25;1.20;75.30
20915;DHT22;10617;52.032;5.298;2023-04-05T04:43:27;1.20;75.50
20915;DHT22;10617;52.032;5.298;2023-04-05T04:47:29;1.10;75.60
20915;DHT22;10617;52.032;5.298;2023-04-05T04:51:32;1.10;76.60
20915;DHT22;10617;52.032;5.298;2023-04-05T04:55:34;1.00;75.60
20915;DHT22;10617;52.032;5.298;2023-04-05T04:59:36;1.00;75.00
20915;DHT22;10617;52.032;5.298;2023-04-05T05:03:38;1.00;75.20
20915;DHT22;10617;52.032;5.298;2023-04-05T05:07:40;1.00;75.20
20915;DHT22;10617;52.032;5.298;2023-04-05T05:11:44;1.00;75.80
20915;DHT22;10617;52.032;5.298;2023-04-05T05:15:46;0.90;75.60
20915;DHT22;10617;52.032;5.298;2023-04-05T05:19:48;0.90;75.70
20915;DHT22;10617;52.032;5.298;2023-04-05T05:23:50;0.90;74.30
20915;DHT22;10617;52.032;5.298;2023-04-05T05:27:52;0.90;74.50
20915;DHT22;10617;52.032;5.298;2023-04-05T05:31:53;0.90;75.20
20915;DHT22;10617;52.032;5.298;2023-04-05T05:35:55;0.90;73.80
20915;DHT22;10617;52.032;5.298;2023-04-05T05:39:57;1.00;73.90
20915;DHT22;10617;52.032;5.298;2023-04-05T05:43:59;1.00;76.00
20915;DHT22;10617;52.032;5.298;2023-04-05T05:48:01;1.10;76.40
20915;DHT22;10617;52.032;5.298;2023-04-05T05:52:02;1.10;78.40
20915;DHT22;10617;52.032;5.298;2023-04-05T05:56:04;1.20;78.00
20915;DHT22;10617;52.032;5.298;2023-04-05T06:00:06;1.30;78.10
20915;DHT22;10617;52.032;5.298;2023-04-05T06:04:12;1.40;75.90
20915;DHT22;10617;52.032;5.298;2023-04-05T06:08:14;1.50;78.80
20915;DHT22;10617;52.032;5.298;2023-04-05T06:12:15;1.60;78.20
20915;DHT22;10617;52.032;5.298;2023-04-05T06:16:17;1.70;80.10
20915;DHT22;10617;52.032;5.298;2023-04-05T06:20:19;1.80;81.50
20915;DHT22;10617;52.032;5.298;2023-04-05T06:24:20;1.90;83.30
20915;DHT22;10617;52.032;5.298;2023-04-05T06:28:22;2.00;83.90
20915;DHT22;10617;52.032;5.298;2023-04-05T06:32:24;2.10;84.30
20915;DHT22;10617;52.032;5.298;2023-04-05T06:36:25;2.30;85.50
20915;DHT22;10617;52.032;5.298;2023-04-05T06:40:28;2.40;84.00
20915;DHT22;10617;52.032;5.298;2023-04-05T06:44:29;2.60;84.50
20915;DHT22;10617;52.032;5.298;2023-04-05T06:48:31;2.70;84.60
20915;DHT22;10617;52.032;5.298;2023-04-05T06:52:33;2.90;84.10
20915;DHT22;10617;52.032;5.298;2023-04-05T06:56:35;3.10;84.10
20915;DHT22;10617;52.032;5.298;2023-04-05T07:00:37;3.30;82.30
20915;DHT22;10617;52.032;5.298;2023-04-05T07:04:38;3.60;81.60
20915;DHT22;10617;52.032;5.298;2023-04-05T07:08:40;3.80;83.00
20915;DHT22;10617;52.032;5.298;2023-04-05T07:12:42;4.10;83.00
20915;DHT22;10617;52.032;5.298;2023-04-05T07:16:43;4.30;82.40
20915;DHT22;10617;52.032;5.298;2023-04-05T07:20:47;4.60;78.70
20915;DHT22;10617;52.032;5.298;2023-04-05T07:24:49;4.80;78.20
20915;DHT22;10617;52.032;5.298;2023-04-05T07:28:52;5.00;80.40
20915;DHT22;10617;52.032;5.298;2023-04-05T07:32:54;5.20;79.80
20915;DHT22;10617;52.032;5.298;2023-04-05T07:36:56;5.40;80.90
20915;DHT22;10617;52.032;5.298;2023-04-05T07:40:57;5.70;82.30
20915;DHT22;10617;52.032;5.298;2023-04-05T07:44:59;5.90;82.10
20915;DHT22;10617;52.032;5.298;2023-04-05T07:49:01;6.10;82.20
20915;DHT22;10617;52.032;5.298;2023-04-05T07:53:02;6.30;82.50
20915;DHT22;10617;52.032;5.298;2023-04-05T07:57:04;6.60;82.30
20915;DHT22;10617;52.032;5.298;2023-04-05T08:01:08;6.80;81.60
20915;DHT22;10617;52.032;5.298;2023-04-05T08:05:10;7.00;81.50
20915;DHT22;10617;52.032;5.298;2023-04-05T08:09:12;7.20;80.60
20915;DHT22;10617;52.032;5.298;2023-04-05T08:13:14;7.40;77.60
20915;DHT22;10617;52.032;5.298;2023-04-05T08:17:15;7.60;78.30
20915;DHT22;10617;52.032;5.298;2023-04-05T08:21:18;7.80;79.10
20915;DHT22;10617;52.032;5.298;2023-04-05T08:25:20;8.00;79.40
20915;DHT22;10617;52.032;5.298;2023-04-05T08:29:21;8.10;79.40
20915;DHT22;10617;52.032;5.298;2023-04-05T08:33:23;8.20;74.60
20915;DHT22;10617;52.032;5.298;2023-04-05T08:37:26;8.30;76.30
20915;DHT22;10617;52.032;5.298;2023-04-05T08:41:35;8.40;78.00
20915;DHT22;10617;52.032;5.298;2023-04-05T08:45:39;8.60;74.40
20915;DHT22;10617;52.032;5.298;2023-04-05T08:49:43;8.70;76.10
20915;DHT22;10617;52.032;5.298;2023-04-05T08:53:45;8.90;76.90
20915;DHT22;10617;52.032;5.298;2023-04-05T08:57:48;9.10;75.00
20915;DHT22;10617;52.032;5.298;2023-04-05T09:01:50;9.20;73.80
20915;DHT22;10617;52.032;5.298;2023-04-05T09:05:53;9.40;75.00
20915;DHT22;10617;52.032;5.298;2023-04-05T09:09:55;9.70;74.20
20915;DHT22;10617;52.032;5.298;2023-04-05T09:14:03;9.80;74.20
20915;DHT22;10617;52.032;5.298;2023-04-05T09:18:05;10.00;72.70
20915;DHT22;10617;52.032;5.298;2023-04-05T09:22:16;10.10;72.30
20915;DHT22;10617;52.032;5.298;2023-04-05T09:26:21;10.30;73.50
20915;DHT22;10617;52.032;5.298;2023-04-05T09:30:24;10.50;74.10
20915;DHT22;10617;52.032;5.298;2023-04-05T09:34:26;10.60;73.10
20915;DHT22;10617;52.032;5.298;2023-04-05T09:38:43;10.50;71.10
20915;DHT22;10617;52.032;5.298;2023-04-05T09:42:45;10.50;71.30
20915;DHT22;10617;52.032;5.298;2023-04-05T09:46:47;10.50;72.10
20915;DHT22;10617;52.032;5.298;2023-04-05T09:50:48;10.60;71.60
20915;DHT22;10617;52.032;5.298;2023-04-05T09:54:54;10.70;72.50
20915;DHT22;10617;52.032;5.298;2023-04-05T09:58:57;10.90;72.70
20915;DHT22;10617;52.032;5.298;2023-04-05T10:03:00;11.10;72.30
20915;DHT22;10617;52.032;5.298;2023-04-05T10:07:02;11.40;73.90
20915;DHT22;10617;52.032;5.298;2023-04-05T10:11:04;11.70;73.10
20915;DHT22;10617;52.032;5.298;2023-04-05T10:15:06;11.90;73.30
20915;DHT22;10617;52.032;5.298;2023-04-05T10:19:09;12.20;70.80
20915;DHT22;10617;52.032;5.298;2023-04-05T10:23:20;12.40;72.90
20915;DHT22;10617;52.032;5.298;2023-04-05T10:27:26;12.70;75.20
20915;DHT22;10617;52.032;5.298;2023-04-05T10:31:34;13.10;70.50
20915;DHT22;10617;52.032;5.298;2023-04-05T10:50:08;13.30;75.50
20915;DHT22;10617;52.032;5.298;2023-04-05T10:54:13;13.50;76.60
20915;DHT22;10617;52.032;5.298;2023-04-05T10:58:17;13.70;83.70
20915;DHT22;10617;52.032;5.298;2023-04-05T11:02:19;13.90;83.20
20915;DHT22;10617;52.032;5.298;2023-04-05T11:10:29;14.10;80.20
20915;DHT22;10617;52.032;5.298;2023-04-05T11:14:37;14.10;79.50
20915;DHT22;10617;52.032;5.298;2023-04-05T11:18:46;14.40;71.90
20915;DHT22;10617;52.032;5.298;2023-04-05T11:27:14;15.10;75.30
20915;DHT22;10617;52.032;5.298;2023-04-05T11:31:17;15.40;84.10
20915;DHT22;10617;52.032;5.298;2023-04-05T11:35:19;15.80;86.60
20915;DHT22;10617;52.032;5.298;2023-04-05T11:39:24;16.30;77.80
20915;DHT22;10617;52.032;5.298;2023-04-05T11:43:26;16.30;70.40
20915;DHT22;10617;52.032;5.298;2023-04-05T11:47:27;16.10;76.20
20915;DHT22;10617;52.032;5.298;2023-04-05T11:51:30;16.00;78.00
20915;DHT22;10617;52.032;5.298;2023-04-05T11:55:32;16.30;76.80
20915;DHT22;10617;52.032;5.298;2023-04-05T11:59:34;16.60;83.60
20915;DHT22;10617;52.032;5.298;2023-04-05T12:03:36;16.90;87.20
20915;DHT22;10617;52.032;5.298;2023-04-05T12:07:38;17.10;81.10
20915;DHT22;10617;52.032;5.298;2023-04-05T12:11:39;17.50;93.60
20915;DHT22;10617;52.032;5.298;2023-04-05T12:15:41;18.10;94.00
20915;DHT22;10617;52.032;5.298;2023-04-05T12:19:43;18.30;94.70
20915;DHT22;10617;52.032;5.298;2023-04-05T12:23:45;18.70;91.30
20915;DHT22;10617;52.032;5.298;2023-04-05T12:27:47;19.10;87.60
20915;DHT22;10617;52.032;5.298;2023-04-05T12:31:49;19.10;94.50
20915;DHT22;10617;52.032;5.298;2023-04-05T12:35:51;18.80;88.70
20915;DHT22;10617;52.032;5.298;2023-04-05T12:39:53;18.50;93.50
20915;DHT22;10617;52.032;5.298;2023-04-05T12:43:55;18.00;81.10
20915;DHT22;10617;52.032;5.298;2023-04-05T12:48:02;17.40;78.70
20915;DHT22;10617;52.032;5.298;2023-04-05T12:52:04;17.00;81.60
20915;DHT22;10617;52.032;5.298;2023-04-05T12:56:05;16.80;78.50
20915;DHT22;10617;52.032;5.298;2023-04-05T13:00:07;16.60;69.50
20915;DHT22;10617;52.032;5.298;2023-04-05T13:04:11;16.40;68.50
20915;DHT22;10617;52.032;5.298;2023-04-05T13:08:17;16.10;62.60
20915;DHT22;10617;52.032;5.298;2023-04-05T13:12:18;15.80;61.90
20915;DHT22;10617;52.032;5.298;2023-04-05T13:16:20;15.70;66.40
20915;DHT22;10617;52.032;5.298;2023-04-05T13:20:22;15.70;64.70
20915;DHT22;10617;52.032;5.298;2023-04-05T13:24:23;15.80;63.80
20915;DHT22;10617;52.032;5.298;2023-04-05T13:28:25;16.10;66.00
20915;DHT22;10617;52.032;5.298;2023-04-05T13:32:27;16.40;61.40
20915;DHT22;10617;52.032;5.298;2023-04-05T13:36:29;16.10;57.20
20915;DHT22;10617;52.032;5.298;2023-04-05T13:40:31;16.10;64.80
20915;DHT22;10617;52.032;5.298;2023-04-05T13:44:33;16.10;60.40
20915;DHT22;10617;52.032;5.298;2023-04-05T13:48:34;16.20;62.30
20915;DHT22;10617;52.032;5.298;2023-04-05T13:52:36;16.30;59.90
20915;DHT22;10617;52.032;5.298;2023-04-05T13:56:38;16.40;58.60
20915;DHT22;10617;52.032;5.298;2023-04-05T14:00:40;16.40;58.40
20915;DHT22;10617;52.032;5.298;2023-04-05T14:04:42;16.40;54.70
20915;DHT22;10617;52.032;5.298;2023-04-05T14:08:44;16.70;55.10
20915;DHT22;10617;52.032;5.298;2023-04-05T14:12:45;17.30;55.80
20915;DHT22;10617;52.032;5.298;2023-04-05T14:16:47;17.90;61.20
20915;DHT22;10617;52.032;5.298;2023-04-05T14:20:49;18.20;57.50
20915;DHT22;10617;52.032;5.298;2023-04-05T14:24:50;18.40;56.70
20915;DHT22;10617;52.032;5.298;2023-04-05T14:28:52;19.00;58.00
20915;DHT22;10617;52.032;5.298;2023-04-05T14:32:54;19.70;53.30
20915;DHT22;10617;52.032;5.298;2023-04-05T14:36:56;20.20;59.60
20915;DHT22;10617;52.032;5.298;2023-04-05T14:40:58;20.70;68.00
20915;DHT22;10617;52.032;5.298;2023-04-05T14:45:00;20.90;77.00
20915;DHT22;10617;52.032;5.298;2023-04-05T14:49:01;21.30;80.30
20915;DHT22;10617;52.032;5.298;2023-04-05T14:53:03;21.50;71.50
20915;DHT22;10617;52.032;5.298;2023-04-05T14:57:05;21.40;68.80
20915;DHT22;10617;52.032;5.298;2023-04-05T15:01:06;21.40;78.20
20915;DHT22;10617;52.032;5.298;2023-04-05T15:05:10;21.40;79.50
20915;DHT22;10617;52.032;5.298;2023-04-05T15:09:12;21.50;72.30
20915;DHT22;10617;52.032;5.298;2023-04-05T15:13:13;21.50;57.30
20915;DHT22;10617;52.032;5.298;2023-04-05T15:17:16;21.50;62.50
20915;DHT22;10617;52.032;5.298;2023-04-05T15:21:17;21.60;66.00
20915;DHT22;10617;52.032;5.298;2023-04-05T15:25:20;21.90;64.50
20915;DHT22;10617;52.032;5.298;2023-04-05T15:29:22;22.10;56.80
20915;DHT22;10617;52.032;5.298;2023-04-05T15:33:23;22.00;65.40
20915;DHT22;10617;52.032;5.298;2023-04-05T15:37:25;22.20;57.90
20915;DHT22;10617;52.032;5.298;2023-04-05T15:41:27;22.60;54.80
20915;DHT22;10617;52.032;5.298;2023-04-05T15:45:29;23.00;58.60
20915;DHT22;10617;52.032;5.298;2023-04-05T15:49:31;23.50;59.50
20915;DHT22;10617;52.032;5.298;2023-04-05T15:53:33;24.00;73.70
20915;DHT22;10617;52.032;5.298;2023-04-05T15:57:34;23.60;60.70
20915;DHT22;10617;52.032;5.298;2023-04-05T16:01:36;23.50;58.60
20915;DHT22;10617;52.032;5.298;2023-04-05T16:05:38;23.70;57.60
20915;DHT22;10617;52.032;5.298;2023-04-05T16:09:40;23.60;59.70
20915;DHT22;10617;52.032;5.298;2023-04-05T16:13:42;23.60;54.90
20915;DHT22;10617;52.032;5.298;2023-04-05T16:17:43;23.80;52.50
20915;DHT22;10617;52.032;5.298;2023-04-05T16:21:46;23.90;64.60
20915;DHT22;10617;52.032;5.298;2023-04-05T16:25:48;24.00;60.50
20915;DHT22;10617;52.032;5.298;2023-04-05T16:29:49;24.00;65.00
20915;DHT22;10617;52.032;5.298;2023-04-05T16:33:51;23.80;52.00
20915;DHT22;10617;52.032;5.298;2023-04-05T16:37:54;23.30;57.70
20915;DHT22;10617;52.032;5.298;2023-04-05T16:41:55;23.10;51.40
20915;DHT22;10617;52.032;5.298;2023-04-05T16:45:57;23.30;56.20
20915;DHT22;10617;52.032;5.298;2023-04-05T16:49:58;23.20;56.00
20915;DHT22;10617;52.032;5.298;2023-04-05T16:54:00;23.30;59.00
20915;DHT22;10617;52.032;5.298;2023-04-05T16:58:02;23.30;52.00
20915;DHT22;10617;52.032;5.298;2023-04-05T17:02:03;23.30;49.10
20915;DHT22;10617;52.032;5.298;2023-04-05T17:06:05;23.20;49.40
20915;DHT22;10617;52.032;5.298;2023-04-05T17:10:07;23.00;51.10
20915;DHT22;10617;52.032;5.298;2023-04-05T17:14:09;23.00;50.00
20915;DHT22;10617;52.032;5.298;2023-04-05T17:18:11;22.90;49.90
20915;DHT22;10617;52.032;5.298;2023-04-05T17:22:13;22.80;50.70
20915;DHT22;10617;52.032;5.298;2023-04-05T17:26:14;22.60;49.00
20915;DHT22;10617;52.032;5.298;2023-04-05T17:30:16;22.30;49.40
20915;DHT22;10617;52.032;5.298;2023-04-05T17:34:17;22.00;46.40
20915;DHT22;10617;52.032;5.298;2023-04-05T17:38:19;21.30;44.40
20915;DHT22;10617;52.032;5.298;2023-04-05T17:42:21;20.50;45.30
20915;DHT22;10617;52.032;5.298;2023-04-05T17:46:23;19.70;45.80
20915;DHT22;10617;52.032;5.298;2023-04-05T17:50:35;18.90;45.30
20915;DHT22;10617;52.032;5.298;2023-04-05T17:54:36;18.20;45.30
20915;DHT22;10617;52.032;5.298;2023-04-05T17:58:38;17.40;45.50
20915;DHT22;10617;52.032;5.298;2023-04-05T18:02:40;16.70;46.70
20915;DHT22;10617;52.032;5.298;2023-04-05T18:06:42;16.10;47.90
20915;DHT22;10617;52.032;5.298;2023-04-05T18:10:43;15.60;47.70
20915;DHT22;10617;52.032;5.298;2023-04-05T18:14:45;15.20;49.00
20915;DHT22;10617;52.032;5.298;2023-04-05T18:18:46;14.80;49.80
20915;DHT22;10617;52.032;5.298;2023-04-05T18:22:48;14.50;50.60
20915;DHT22;10617;52.032;5.298;2023-04-05T18:26:50;14.20;50.50
20915;DHT22;10617;52.032;5.298;2023-04-05T18:30:52;14.10;51.50
20915;DHT22;10617;52.032;5.298;2023-04-05T18:34:53;13.80;52.80
20915;DHT22;10617;52.032;5.298;2023-04-05T18:38:56;13.50;52.50
20915;DHT22;10617;52.032;5.298;2023-04-05T18:42:58;13.30;51.70
20915;DHT22;10617;52.032;5.298;2023-04-05T18:47:00;13.10;52.00
20915;DHT22;10617;52.032;5.298;2023-04-05T18:51:01;12.80;53.60
20915;DHT22;10617;52.032;5.298;2023-04-05T18:55:03;12.60;52.30
20915;DHT22;10617;52.032;5.298;2023-04-05T18:59:05;12.40;53.60
20915;DHT22;10617;52.032;5.298;2023-04-05T19:03:07;12.20;54.00
20915;DHT22;10617;52.032;5.298;2023-04-05T19:07:09;12.00;54.50
20915;DHT22;10617;52.032;5.298;2023-04-05T19:11:10;11.80;56.60
20915;DHT22;10617;52.032;5.298;2023-04-05T19:15:14;11.60;57.20
20915;DHT22;10617;52.032;5.298;2023-04-05T19:19:16;11.40;57.00
20915;DHT22;10617;52.032;5.298;2023-04-05T19:23:19;11.20;55.00
20915;DHT22;10617;52.032;5.298;2023-04-05T19:27:21;11.10;54.30
20915;DHT22;10617;52.032;5.298;2023-04-05T19:31:23;11.00;56.20
20915;DHT22;10617;52.032;5.298;2023-04-05T19:35:26;10.90;57.00
20915;DHT22;10617;52.032;5.298;2023-04-05T19:39:28;10.70;60.60
20915;DHT22;10617;52.032;5.298;2023-04-05T19:43:29;10.50;59.70
20915;DHT22;10617;52.032;5.298;2023-04-05T19:47:32;10.30;59.20
20915;DHT22;10617;52.032;5.298;2023-04-05T19:51:35;10.20;62.70
20915;DHT22;10617;52.032;5.298;2023-04-05T19:55:37;9.90;65.70
20915;DHT22;10617;52.032;5.298;2023-04-05T19:59:38;9.80;58.60
20915;DHT22;10617;52.032;5.298;2023-04-05T20:03:41;9.70;58.30
20915;DHT22;10617;52.032;5.298;2023-04-05T20:07:43;9.70;58.10
20915;DHT22;10617;52.032;5.298;2023-04-05T20:26:55;9.00;62.70
20915;DHT22;10617;52.032;5.298;2023-04-05T20:31:42;8.90;60.20
20915;DHT22;10617;52.032;5.298;2023-04-05T20:35:32;8.80;60.60
20915;DHT22;10617;52.032;5.298;2023-04-05T20:39:34;8.70;58.30
20915;DHT22;10617;52.032;5.298;2023-04-05T20:43:37;8.60;63.00
20915;DHT22;10617;52.032;5.298;2023-04-05T20:47:38;8.40;66.50
20915;DHT22;10617;52.032;5.298;2023-04-05T20:51:40;8.30;65.70
20915;DHT22;10617;52.032;5.298;2023-04-05T20:55:43;8.10;68.10
20915;DHT22;10617;52.032;5.298;2023-04-05T20:59:45;7.90;70.00
20915;DHT22;10617;52.032;5.298;2023-04-05T21:03:47;7.80;68.90
20915;DHT22;10617;52.032;5.298;2023-04-05T21:07:48;7.60;61.70
20915;DHT22;10617;52.032;5.298;2023-04-05T21:11:50;7.60;59.10
20915;DHT22;10617;52.032;5.298;2023-04-05T21:15:54;7.60;61.40
20915;DHT22;10617;52.032;5.298;2023-04-05T21:29:39;7.40;60.30
20915;DHT22;10617;52.032;5.298;2023-04-05T21:33:41;7.20;58.90
20915;DHT22;10617;52.032;5.298;2023-04-05T21:37:42;7.10;59.70
20915;DHT22;10617;52.032;5.298;2023-04-05T21:41:44;7.00;59.60
20915;DHT22;10617;52.032;5.298;2023-04-05T21:45:45;6.80;60.50
20915;DHT22;10617;52.032;5.298;2023-04-05T21:49:50;6.80;61.90
20915;DHT22;10617;52.032;5.298;2023-04-05T21:53:55;6.70;62.20
20915;DHT22;10617;52.032;5.298;2023-04-05T21:57:56;6.70;59.70
20915;DHT22;10617;52.032;5.298;2023-04-05T22:01:58;6.70;58.10
20915;DHT22;10617;52.032;5.298;2023-04-05T22:06:00;6.60;60.80
20915;DHT22;10617;52.032;5.298;2023-04-05T22:10:02;6.60;64.10
20915;DHT22;10617;52.032;5.298;2023-04-05T22:14:04;6.50;60.50
20915;DHT22;10617;52.032;5.298;2023-04-05T22:18:05;6.40;57.00
20915;DHT22;10617;52.032;5.298;2023-04-05T22:22:07;6.30;59.40
20915;DHT22;10617;52.032;5.298;2023-04-05T22:26:09;6.30;57.90
20915;DHT22;10617;52.032;5.298;2023-04-05T22:30:11;6.20;60.40
20915;DHT22;10617;52.032;5.298;2023-04-05T22:34:13;6.10;59.00
20915;DHT22;10617;52.032;5.298;2023-04-05T22:38:14;5.90;60.30
20915;DHT22;10617;52.032;5.298;2023-04-05T22:42:16;5.90;59.40
20915;DHT22;10617;52.032;5.298;2023-04-05T22:46:18;5.80;60.70
20915;DHT22;10617;52.032;5.298;2023-04-05T22:50:20;5.70;59.40
20915;DHT22;10617;52.032;5.298;2023-04-05T22:54:21;5.60;60.00
20915;DHT22;10617;52.032;5.298;2023-04-05T22:58:23;5.60;60.30
20915;DHT22;10617;52.032;5.298;2023-04-05T23:02:25;5.60;58.20
20915;DHT22;10617;52.032;5.298;2023-04-05T23:06:28;5.50;58.30
20915;DHT22;10617;52.032;5.298;2023-04-05T23:10:30;5.40;58.70
20915;DHT22;10617;52.032;5.298;2023-04-05T23:14:32;5.30;60.00
20915;DHT22;10617;52.032;5.298;2023-04-05T23:18:33;5.40;59.80
20915;DHT22;10617;52.032;5.298;2023-04-05T23:22:35;5.30;58.30
20915;DHT22;10617;52.032;5.298;2023-04-05T23:26:37;5.30;60.20
20915;DHT22;10617;52.032;5.298;2023-04-05T23:30:38;5.30;60.00
20915;DHT22;10617;52.032;5.298;2023-04-05T23:34:40;5.30;59.30
20915;DHT22;10617;52.032;5.298;2023-04-05T23:38:42;5.20;61.80
20915;DHT22;10617;52.032;5.298;2023-04-05T23:42:44;5.20;61.40
20915;DHT22;10617;52.032;5.298;2023-04-05T23:46:46;5.20;61.20
20915;DHT22;10617;52.032;5.298;2023-04-05T23:50:47;5.20;59.80
20915;DHT22;10617;52.032;5.298;2023-04-05T23:54:49;5.30;61.40
20915;DHT22;10617;52.032;5.298;2023-04-05T23:58:51;5.40;61.20
